sensor_id;sensor_type;location;lat;lon;timestamp;P1;durP1;ratioP1;P2;durP2;ratioP2
85871;SDS011;76390;44.082;3.046;2024-02-16T00:00:23;3.72;;;1.05;;
85871;SDS011;76390;44.082;3.046;2024-02-16T00:02:49;3.22;;;1.35;;
85871;SDS011;76390;44.082;3.046;2024-02-16T00:05:14;4.45;;;1.70;;
85871;SDS011;76390;44.082;3.046;2024-02-16T00:07:40;4.78;;;1.60;;
85871;SDS011;76390;44.082;3.046;2024-02-16T00:10:06;6.40;;;2.10;;
85871;SDS011;76390;44.082;3.046;2024-02-16T00:12:32;6.25;;;2.10;;
85871;SDS011;76390;44.082;3.046;2024-02-16T00:14:59;3.92;;;1.60;;
85871;SDS011;76390;44.082;3.046;2024-02-16T00:17:25;4.82;;;1.52;;
85871;SDS011;76390;44.082;3.046;2024-02-16T00:19:54;2.88;;;0.90;;
85871;SDS011;76390;44.082;3.046;2024-02-16T00:22:20;5.28;;;2.20;;
85871;SDS011;76390;44.082;3.046;2024-02-16T00:24:45;3.35;;;1.30;;
85871;SDS011;76390;44.082;3.046;2024-02-16T00:27:11;4.82;;;1.55;;
85871;SDS011;76390;44.082;3.046;2024-02-16T00:29:37;4.55;;;1.52;;
85871;SDS011;76390;44.082;3.046;2024-02-16T00:32:03;3.20;;;1.17;;
85871;SDS011;76390;44.082;3.046;2024-02-16T00:34:31;4.28;;;1.05;;
85871;SDS011;76390;44.082;3.046;2024-02-16T00:36:57;4.38;;;1.02;;
85871;SDS011;76390;44.082;3.046;2024-02-16T00:39:22;7.05;;;1.38;;
85871;SDS011;76390;44.082;3.046;2024-02-16T00:41:48;6.03;;;1.45;;
85871;SDS011;76390;44.082;3.046;2024-02-16T00:44:13;6.32;;;2.20;;
85871;SDS011;76390;44.082;3.046;2024-02-16T00:46:39;4.90;;;1.70;;
85871;SDS011;76390;44.082;3.046;2024-02-16T00:49:05;6.43;;;1.80;;
85871;SDS011;76390;44.082;3.046;2024-02-16T00:51:30;5.13;;;2.85;;
85871;SDS011;76390;44.082;3.046;2024-02-16T00:53:56;3.03;;;1.65;;
85871;SDS011;76390;44.082;3.046;2024-02-16T00:56:22;3.75;;;2.10;;
85871;SDS011;76390;44.082;3.046;2024-02-16T00:58:48;4.13;;;1.58;;
85871;SDS011;76390;44.082;3.046;2024-02-16T01:01:14;2.65;;;1.42;;
85871;SDS011;76390;44.082;3.046;2024-02-16T01:03:39;6.35;;;1.60;;
85871;SDS011;76390;44.082;3.046;2024-02-16T01:06:05;4.60;;;1.92;;
85871;SDS011;76390;44.082;3.046;2024-02-16T01:08:31;4.25;;;1.67;;
85871;SDS011;76390;44.082;3.046;2024-02-16T01:10:57;5.15;;;1.90;;
85871;SDS011;76390;44.082;3.046;2024-02-16T01:13:23;5.40;;;1.70;;
85871;SDS011;76390;44.082;3.046;2024-02-16T01:15:49;4.25;;;1.75;;
85871;SDS011;76390;44.082;3.046;2024-02-16T01:18:14;5.22;;;1.77;;
85871;SDS011;76390;44.082;3.046;2024-02-16T01:20:40;5.18;;;2.53;;
85871;SDS011;76390;44.082;3.046;2024-02-16T01:23:06;8.63;;;3.88;;
85871;SDS011;76390;44.082;3.046;2024-02-16T01:25:31;3.70;;;1.60;;
85871;SDS011;76390;44.082;3.046;2024-02-16T01:27:57;7.00;;;2.60;;
85871;SDS011;76390;44.082;3.046;2024-02-16T01:30:24;6.70;;;1.80;;
85871;SDS011;76390;44.082;3.046;2024-02-16T01:32:49;5.30;;;1.60;;
85871;SDS011;76390;44.082;3.046;2024-02-16T01:35:15;3.70;;;1.92;;
85871;SDS011;76390;44.082;3.046;2024-02-16T01:37:41;4.40;;;1.95;;
85871;SDS011;76390;44.082;3.046;2024-02-16T01:40:07;3.58;;;1.52;;
85871;SDS011;76390;44.082;3.046;2024-02-16T01:42:38;3.08;;;1.48;;
85871;SDS011;76390;44.082;3.046;2024-02-16T01:45:07;5.45;;;1.88;;
85871;SDS011;76390;44.082;3.046;2024-02-16T01:47:34;5.75;;;1.98;;
85871;SDS011;76390;44.082;3.046;2024-02-16T01:50:01;5.60;;;2.20;;
85871;SDS011;76390;44.082;3.046;2024-02-16T01:52:27;5.45;;;2.47;;
85871;SDS011;76390;44.082;3.046;2024-02-16T01:54:53;6.13;;;2.67;;
85871;SDS011;76390;44.082;3.046;2024-02-16T01:57:19;5.80;;;2.58;;
85871;SDS011;76390;44.082;3.046;2024-02-16T01:59:44;5.55;;;2.63;;
85871;SDS011;76390;44.082;3.046;2024-02-16T02:02:10;8.00;;;2.67;;
85871;SDS011;76390;44.082;3.046;2024-02-16T02:04:36;5.85;;;2.53;;
85871;SDS011;76390;44.082;3.046;2024-02-16T02:07:10;6.95;;;2.63;;
85871;SDS011;76390;44.082;3.046;2024-02-16T02:09:37;8.10;;;2.83;;
85871;SDS011;76390;44.082;3.046;2024-02-16T02:12:03;8.65;;;2.70;;
85871;SDS011;76390;44.082;3.046;2024-02-16T02:14:28;8.40;;;2.78;;
85871;SDS011;76390;44.082;3.046;2024-02-16T02:16:54;7.50;;;2.85;;
85871;SDS011;76390;44.082;3.046;2024-02-16T02:19:20;5.97;;;2.50;;
85871;SDS011;76390;44.082;3.046;2024-02-16T02:21:45;6.15;;;2.42;;
85871;SDS011;76390;44.082;3.046;2024-02-16T02:24:11;7.88;;;2.78;;
85871;SDS011;76390;44.082;3.046;2024-02-16T02:26:36;7.82;;;2.80;;
85871;SDS011;76390;44.082;3.046;2024-02-16T02:29:02;4.85;;;2.35;;
85871;SDS011;76390;44.082;3.046;2024-02-16T02:31:28;6.43;;;2.38;;
85871;SDS011;76390;44.082;3.046;2024-02-16T02:33:54;5.88;;;2.78;;
85871;SDS011;76390;44.082;3.046;2024-02-16T02:36:19;5.55;;;2.47;;
85871;SDS011;76390;44.082;3.046;2024-02-16T02:38:45;5.80;;;2.75;;
85871;SDS011;76390;44.082;3.046;2024-02-16T02:41:10;6.43;;;2.67;;
85871;SDS011;76390;44.082;3.046;2024-02-16T02:43:36;7.35;;;3.08;;
85871;SDS011;76390;44.082;3.046;2024-02-16T02:46:01;6.45;;;3.45;;
85871;SDS011;76390;44.082;3.046;2024-02-16T02:48:27;9.27;;;3.15;;
85871;SDS011;76390;44.082;3.046;2024-02-16T02:50:52;6.97;;;3.35;;
85871;SDS011;76390;44.082;3.046;2024-02-16T02:53:18;9.20;;;3.47;;
85871;SDS011;76390;44.082;3.046;2024-02-16T02:55:44;9.50;;;3.22;;
85871;SDS011;76390;44.082;3.046;2024-02-16T02:58:09;5.82;;;3.22;;
85871;SDS011;76390;44.082;3.046;2024-02-16T03:00:34;8.02;;;2.97;;
85871;SDS011;76390;44.082;3.046;2024-02-16T03:03:00;5.03;;;2.63;;
85871;SDS011;76390;44.082;3.046;2024-02-16T03:05:26;7.57;;;3.33;;
85871;SDS011;76390;44.082;3.046;2024-02-16T03:07:52;6.90;;;3.63;;
85871;SDS011;76390;44.082;3.046;2024-02-16T03:10:18;7.05;;;3.42;;
85871;SDS011;76390;44.082;3.046;2024-02-16T03:12:47;6.95;;;3.15;;
85871;SDS011;76390;44.082;3.046;2024-02-16T03:15:15;7.18;;;3.40;;
85871;SDS011;76390;44.082;3.046;2024-02-16T03:17:41;4.65;;;2.83;;
85871;SDS011;76390;44.082;3.046;2024-02-16T03:20:06;5.80;;;3.30;;
85871;SDS011;76390;44.082;3.046;2024-02-16T03:22:33;8.13;;;3.10;;
85871;SDS011;76390;44.082;3.046;2024-02-16T03:24:58;5.75;;;3.15;;
85871;SDS011;76390;44.082;3.046;2024-02-16T03:27:24;5.70;;;2.65;;
85871;SDS011;76390;44.082;3.046;2024-02-16T03:29:49;6.95;;;2.83;;
85871;SDS011;76390;44.082;3.046;2024-02-16T03:32:15;6.65;;;3.05;;
85871;SDS011;76390;44.082;3.046;2024-02-16T03:34:40;6.95;;;2.50;;
85871;SDS011;76390;44.082;3.046;2024-02-16T03:37:06;7.35;;;3.13;;
85871;SDS011;76390;44.082;3.046;2024-02-16T03:39:31;7.55;;;3.28;;
85871;SDS011;76390;44.082;3.046;2024-02-16T03:41:57;7.55;;;3.15;;
85871;SDS011;76390;44.082;3.046;2024-02-16T03:44:22;6.68;;;3.25;;
85871;SDS011;76390;44.082;3.046;2024-02-16T03:46:48;5.43;;;3.03;;
85871;SDS011;76390;44.082;3.046;2024-02-16T03:49:13;7.30;;;2.90;;
85871;SDS011;76390;44.082;3.046;2024-02-16T03:51:39;5.68;;;2.85;;
85871;SDS011;76390;44.082;3.046;2024-02-16T03:54:04;7.60;;;3.20;;
85871;SDS011;76390;44.082;3.046;2024-02-16T03:56:30;8.90;;;3.15;;
85871;SDS011;76390;44.082;3.046;2024-02-16T03:58:56;6.40;;;2.75;;
85871;SDS011;76390;44.082;3.046;2024-02-16T04:01:21;6.13;;;2.88;;
85871;SDS011;76390;44.082;3.046;2024-02-16T04:03:47;5.22;;;2.80;;
85871;SDS011;76390;44.082;3.046;2024-02-16T04:06:12;7.00;;;2.78;;
85871;SDS011;76390;44.082;3.046;2024-02-16T04:08:38;4.32;;;2.67;;
85871;SDS011;76390;44.082;3.046;2024-02-16T04:11:04;4.38;;;2.70;;
85871;SDS011;76390;44.082;3.046;2024-02-16T04:13:30;6.60;;;2.90;;
85871;SDS011;76390;44.082;3.046;2024-02-16T04:15:55;8.25;;;2.75;;
85871;SDS011;76390;44.082;3.046;2024-02-16T04:18:20;6.00;;;2.78;;
85871;SDS011;76390;44.082;3.046;2024-02-16T04:20:46;7.15;;;2.60;;
85871;SDS011;76390;44.082;3.046;2024-02-16T04:23:12;4.72;;;2.55;;
85871;SDS011;76390;44.082;3.046;2024-02-16T04:25:37;4.75;;;3.25;;
85871;SDS011;76390;44.082;3.046;2024-02-16T04:28:03;8.05;;;2.72;;
85871;SDS011;76390;44.082;3.046;2024-02-16T04:30:29;5.75;;;2.60;;
85871;SDS011;76390;44.082;3.046;2024-02-16T04:32:55;4.80;;;2.60;;
85871;SDS011;76390;44.082;3.046;2024-02-16T04:35:20;5.15;;;2.55;;
85871;SDS011;76390;44.082;3.046;2024-02-16T04:37:46;6.25;;;2.83;;
85871;SDS011;76390;44.082;3.046;2024-02-16T04:40:11;6.72;;;2.60;;
85871;SDS011;76390;44.082;3.046;2024-02-16T04:42:37;6.10;;;2.75;;
85871;SDS011;76390;44.082;3.046;2024-02-16T04:45:05;5.93;;;2.53;;
85871;SDS011;76390;44.082;3.046;2024-02-16T04:47:31;6.45;;;2.70;;
85871;SDS011;76390;44.082;3.046;2024-02-16T04:49:56;7.03;;;3.10;;
85871;SDS011;76390;44.082;3.046;2024-02-16T04:52:22;6.68;;;3.00;;
85871;SDS011;76390;44.082;3.046;2024-02-16T04:54:48;7.60;;;3.08;;
85871;SDS011;76390;44.082;3.046;2024-02-16T04:57:14;6.78;;;3.35;;
85871;SDS011;76390;44.082;3.046;2024-02-16T04:59:39;5.15;;;3.33;;
85871;SDS011;76390;44.082;3.046;2024-02-16T05:02:04;5.78;;;2.70;;
85871;SDS011;76390;44.082;3.046;2024-02-16T05:04:32;7.97;;;3.55;;
85871;SDS011;76390;44.082;3.046;2024-02-16T05:06:57;7.93;;;3.70;;
85871;SDS011;76390;44.082;3.046;2024-02-16T05:09:23;12.00;;;5.22;;
85871;SDS011;76390;44.082;3.046;2024-02-16T05:11:51;16.95;;;8.35;;
85871;SDS011;76390;44.082;3.046;2024-02-16T05:14:17;15.95;;;8.20;;
85871;SDS011;76390;44.082;3.046;2024-02-16T05:16:46;14.18;;;6.97;;
85871;SDS011;76390;44.082;3.046;2024-02-16T05:19:12;17.63;;;6.68;;
85871;SDS011;76390;44.082;3.046;2024-02-16T05:21:38;12.10;;;5.30;;
85871;SDS011;76390;44.082;3.046;2024-02-16T05:24:03;10.55;;;4.80;;
85871;SDS011;76390;44.082;3.046;2024-02-16T05:26:29;9.07;;;4.65;;
85871;SDS011;76390;44.082;3.046;2024-02-16T05:28:55;12.18;;;6.13;;
85871;SDS011;76390;44.082;3.046;2024-02-16T05:31:20;11.57;;;5.78;;
85871;SDS011;76390;44.082;3.046;2024-02-16T05:33:47;6.57;;;3.70;;
85871;SDS011;76390;44.082;3.046;2024-02-16T05:36:20;10.23;;;4.32;;
85871;SDS011;76390;44.082;3.046;2024-02-16T05:38:50;7.22;;;3.50;;
85871;SDS011;76390;44.082;3.046;2024-02-16T05:41:16;5.03;;;3.00;;
85871;SDS011;76390;44.082;3.046;2024-02-16T05:43:43;5.55;;;3.17;;
85871;SDS011;76390;44.082;3.046;2024-02-16T05:46:16;5.43;;;2.88;;
85871;SDS011;76390;44.082;3.046;2024-02-16T05:48:42;8.82;;;3.67;;
85871;SDS011;76390;44.082;3.046;2024-02-16T05:51:08;7.63;;;3.40;;
85871;SDS011;76390;44.082;3.046;2024-02-16T05:53:33;6.25;;;3.30;;
85871;SDS011;76390;44.082;3.046;2024-02-16T05:55:59;5.97;;;3.03;;
85871;SDS011;76390;44.082;3.046;2024-02-16T05:58:25;9.95;;;3.80;;
85871;SDS011;76390;44.082;3.046;2024-02-16T06:00:51;5.75;;;3.05;;
85871;SDS011;76390;44.082;3.046;2024-02-16T06:03:16;5.13;;;2.53;;
85871;SDS011;76390;44.082;3.046;2024-02-16T06:05:42;7.57;;;3.40;;
85871;SDS011;76390;44.082;3.046;2024-02-16T06:08:11;5.38;;;3.13;;
85871;SDS011;76390;44.082;3.046;2024-02-16T06:10:36;11.13;;;5.45;;
85871;SDS011;76390;44.082;3.046;2024-02-16T06:13:02;10.88;;;6.70;;
85871;SDS011;76390;44.082;3.046;2024-02-16T06:15:27;15.43;;;8.38;;
85871;SDS011;76390;44.082;3.046;2024-02-16T06:17:53;22.60;;;10.65;;
85871;SDS011;76390;44.082;3.046;2024-02-16T06:20:19;26.00;;;12.45;;
85871;SDS011;76390;44.082;3.046;2024-02-16T06:22:44;12.27;;;5.88;;
85871;SDS011;76390;44.082;3.046;2024-02-16T06:25:10;7.68;;;4.57;;
85871;SDS011;76390;44.082;3.046;2024-02-16T06:27:35;13.93;;;5.88;;
85871;SDS011;76390;44.082;3.046;2024-02-16T06:30:02;10.45;;;5.75;;
85871;SDS011;76390;44.082;3.046;2024-02-16T06:32:29;12.07;;;5.78;;
85871;SDS011;76390;44.082;3.046;2024-02-16T06:34:56;11.55;;;5.35;;
85871;SDS011;76390;44.082;3.046;2024-02-16T06:37:21;10.38;;;5.47;;
85871;SDS011;76390;44.082;3.046;2024-02-16T06:39:47;20.17;;;9.10;;
85871;SDS011;76390;44.082;3.046;2024-02-16T06:42:12;20.75;;;9.07;;
85871;SDS011;76390;44.082;3.046;2024-02-16T06:44:38;15.80;;;8.35;;
85871;SDS011;76390;44.082;3.046;2024-02-16T06:47:05;23.33;;;11.05;;
85871;SDS011;76390;44.082;3.046;2024-02-16T06:49:30;21.75;;;10.90;;
85871;SDS011;76390;44.082;3.046;2024-02-16T06:51:56;15.35;;;8.70;;
85871;SDS011;76390;44.082;3.046;2024-02-16T06:54:21;13.23;;;8.25;;
85871;SDS011;76390;44.082;3.046;2024-02-16T06:56:47;17.67;;;9.40;;
85871;SDS011;76390;44.082;3.046;2024-02-16T06:59:13;14.65;;;7.35;;
85871;SDS011;76390;44.082;3.046;2024-02-16T07:01:38;14.45;;;8.10;;
85871;SDS011;76390;44.082;3.046;2024-02-16T07:04:04;19.10;;;8.10;;
85871;SDS011;76390;44.082;3.046;2024-02-16T07:06:29;20.05;;;9.65;;
85871;SDS011;76390;44.082;3.046;2024-02-16T07:08:55;23.08;;;10.88;;
85871;SDS011;76390;44.082;3.046;2024-02-16T07:11:20;22.05;;;11.00;;
85871;SDS011;76390;44.082;3.046;2024-02-16T07:13:46;18.20;;;9.32;;
85871;SDS011;76390;44.082;3.046;2024-02-16T07:16:11;19.13;;;9.45;;
85871;SDS011;76390;44.082;3.046;2024-02-16T07:18:37;20.77;;;9.95;;
85871;SDS011;76390;44.082;3.046;2024-02-16T07:21:03;21.92;;;9.80;;
85871;SDS011;76390;44.082;3.046;2024-02-16T07:23:28;23.50;;;10.57;;
85871;SDS011;76390;44.082;3.046;2024-02-16T07:25:54;20.98;;;10.50;;
85871;SDS011;76390;44.082;3.046;2024-02-16T07:28:22;21.60;;;9.65;;
85871;SDS011;76390;44.082;3.046;2024-02-16T07:30:47;15.23;;;8.85;;
85871;SDS011;76390;44.082;3.046;2024-02-16T07:33:13;19.60;;;9.95;;
85871;SDS011;76390;44.082;3.046;2024-02-16T07:35:38;20.80;;;10.18;;
85871;SDS011;76390;44.082;3.046;2024-02-16T07:38:04;21.98;;;11.38;;
85871;SDS011;76390;44.082;3.046;2024-02-16T07:40:30;12.10;;;6.05;;
85871;SDS011;76390;44.082;3.046;2024-02-16T07:42:56;9.75;;;4.90;;
85871;SDS011;76390;44.082;3.046;2024-02-16T07:45:22;9.23;;;5.32;;
85871;SDS011;76390;44.082;3.046;2024-02-16T07:47:48;10.13;;;5.13;;
85871;SDS011;76390;44.082;3.046;2024-02-16T07:50:13;10.95;;;5.18;;
85871;SDS011;76390;44.082;3.046;2024-02-16T07:52:39;8.57;;;4.75;;
85871;SDS011;76390;44.082;3.046;2024-02-16T07:55:08;12.27;;;5.45;;
85871;SDS011;76390;44.082;3.046;2024-02-16T07:57:34;9.32;;;5.88;;
85871;SDS011;76390;44.082;3.046;2024-02-16T07:59:59;11.70;;;6.20;;
85871;SDS011;76390;44.082;3.046;2024-02-16T08:02:25;13.50;;;6.53;;
85871;SDS011;76390;44.082;3.046;2024-02-16T08:04:50;14.20;;;6.63;;
85871;SDS011;76390;44.082;3.046;2024-02-16T08:07:16;12.23;;;5.95;;
85871;SDS011;76390;44.082;3.046;2024-02-16T08:09:45;11.73;;;5.95;;
85871;SDS011;76390;44.082;3.046;2024-02-16T08:12:11;17.13;;;6.32;;
85871;SDS011;76390;44.082;3.046;2024-02-16T08:14:38;12.43;;;6.45;;
85871;SDS011;76390;44.082;3.046;2024-02-16T08:17:05;14.07;;;6.45;;
85871;SDS011;76390;44.082;3.046;2024-02-16T08:19:32;11.80;;;6.32;;
85871;SDS011;76390;44.082;3.046;2024-02-16T08:22:05;12.68;;;6.07;;
85871;SDS011;76390;44.082;3.046;2024-02-16T08:24:34;11.68;;;6.40;;
85871;SDS011;76390;44.082;3.046;2024-02-16T08:27:00;11.20;;;5.72;;
85871;SDS011;76390;44.082;3.046;2024-02-16T08:29:26;12.40;;;6.32;;
85871;SDS011;76390;44.082;3.046;2024-02-16T08:31:51;14.73;;;6.18;;
85871;SDS011;76390;44.082;3.046;2024-02-16T08:34:17;36.63;;;12.75;;
85871;SDS011;76390;44.082;3.046;2024-02-16T08:36:44;20.05;;;8.27;;
85871;SDS011;76390;44.082;3.046;2024-02-16T08:39:10;23.08;;;9.02;;
85871;SDS011;76390;44.082;3.046;2024-02-16T08:41:37;22.63;;;8.50;;
85871;SDS011;76390;44.082;3.046;2024-02-16T08:44:03;13.05;;;5.95;;
85871;SDS011;76390;44.082;3.046;2024-02-16T08:46:28;13.38;;;6.28;;
85871;SDS011;76390;44.082;3.046;2024-02-16T08:48:54;8.35;;;4.40;;
85871;SDS011;76390;44.082;3.046;2024-02-16T08:51:20;9.07;;;4.95;;
85871;SDS011;76390;44.082;3.046;2024-02-16T08:53:46;7.90;;;4.38;;
85871;SDS011;76390;44.082;3.046;2024-02-16T08:56:11;9.00;;;5.15;;
85871;SDS011;76390;44.082;3.046;2024-02-16T08:58:38;6.30;;;3.97;;
85871;SDS011;76390;44.082;3.046;2024-02-16T09:01:04;8.45;;;4.90;;
85871;SDS011;76390;44.082;3.046;2024-02-16T09:03:30;8.27;;;4.10;;
85871;SDS011;76390;44.082;3.046;2024-02-16T09:06:02;8.77;;;4.28;;
85871;SDS011;76390;44.082;3.046;2024-02-16T09:08:27;8.18;;;4.85;;
85871;SDS011;76390;44.082;3.046;2024-02-16T09:10:58;8.50;;;4.72;;
85871;SDS011;76390;44.082;3.046;2024-02-16T09:13:33;10.20;;;5.28;;
85871;SDS011;76390;44.082;3.046;2024-02-16T09:16:00;9.85;;;4.57;;
85871;SDS011;76390;44.082;3.046;2024-02-16T09:18:26;8.70;;;4.97;;
85871;SDS011;76390;44.082;3.046;2024-02-16T09:20:52;8.02;;;4.95;;
85871;SDS011;76390;44.082;3.046;2024-02-16T09:23:18;11.93;;;5.43;;
85871;SDS011;76390;44.082;3.046;2024-02-16T09:25:43;9.13;;;5.85;;
85871;SDS011;76390;44.082;3.046;2024-02-16T09:28:11;12.57;;;5.60;;
85871;SDS011;76390;44.082;3.046;2024-02-16T09:30:37;11.80;;;5.00;;
85871;SDS011;76390;44.082;3.046;2024-02-16T09:33:03;10.85;;;5.15;;
85871;SDS011;76390;44.082;3.046;2024-02-16T09:35:28;10.18;;;4.22;;
85871;SDS011;76390;44.082;3.046;2024-02-16T09:37:54;17.77;;;4.50;;
85871;SDS011;76390;44.082;3.046;2024-02-16T09:40:21;10.00;;;4.45;;
85871;SDS011;76390;44.082;3.046;2024-02-16T09:42:49;8.65;;;4.78;;
85871;SDS011;76390;44.082;3.046;2024-02-16T09:45:16;7.88;;;4.57;;
85871;SDS011;76390;44.082;3.046;2024-02-16T09:47:45;11.43;;;6.22;;
85871;SDS011;76390;44.082;3.046;2024-02-16T09:50:12;9.52;;;5.20;;
85871;SDS011;76390;44.082;3.046;2024-02-16T09:52:38;8.43;;;4.30;;
85871;SDS011;76390;44.082;3.046;2024-02-16T09:55:03;11.18;;;5.25;;
85871;SDS011;76390;44.082;3.046;2024-02-16T09:57:32;8.13;;;4.80;;
85871;SDS011;76390;44.082;3.046;2024-02-16T09:59:57;9.73;;;4.82;;
85871;SDS011;76390;44.082;3.046;2024-02-16T10:02:23;9.27;;;4.85;;
85871;SDS011;76390;44.082;3.046;2024-02-16T10:04:49;10.35;;;5.68;;
85871;SDS011;76390;44.082;3.046;2024-02-16T10:07:14;9.25;;;4.65;;
85871;SDS011;76390;44.082;3.046;2024-02-16T10:09:40;14.75;;;4.93;;
85871;SDS011;76390;44.082;3.046;2024-02-16T10:12:06;12.82;;;5.68;;
85871;SDS011;76390;44.082;3.046;2024-02-16T10:14:32;10.50;;;4.70;;
85871;SDS011;76390;44.082;3.046;2024-02-16T10:17:01;13.98;;;6.45;;
85871;SDS011;76390;44.082;3.046;2024-02-16T10:19:28;9.90;;;4.72;;
85871;SDS011;76390;44.082;3.046;2024-02-16T10:22:20;8.88;;;4.45;;
85871;SDS011;76390;44.082;3.046;2024-02-16T10:24:48;10.93;;;4.60;;
85871;SDS011;76390;44.082;3.046;2024-02-16T10:27:18;10.23;;;4.40;;
85871;SDS011;76390;44.082;3.046;2024-02-16T10:29:44;8.82;;;4.25;;
85871;SDS011;76390;44.082;3.046;2024-02-16T10:32:12;7.28;;;3.78;;
85871;SDS011;76390;44.082;3.046;2024-02-16T10:34:38;6.35;;;3.53;;
85871;SDS011;76390;44.082;3.046;2024-02-16T10:37:04;7.68;;;3.60;;
85871;SDS011;76390;44.082;3.046;2024-02-16T10:39:31;9.02;;;3.80;;
85871;SDS011;76390;44.082;3.046;2024-02-16T10:41:58;5.20;;;3.25;;
85871;SDS011;76390;44.082;3.046;2024-02-16T10:44:24;10.50;;;3.60;;
85871;SDS011;76390;44.082;3.046;2024-02-16T10:46:50;7.38;;;3.13;;
85871;SDS011;76390;44.082;3.046;2024-02-16T10:49:17;7.32;;;3.50;;
85871;SDS011;76390;44.082;3.046;2024-02-16T10:51:46;6.85;;;3.60;;
85871;SDS011;76390;44.082;3.046;2024-02-16T10:54:15;8.32;;;4.00;;
85871;SDS011;76390;44.082;3.046;2024-02-16T10:56:43;8.70;;;3.80;;
85871;SDS011;76390;44.082;3.046;2024-02-16T10:59:09;9.68;;;3.50;;
85871;SDS011;76390;44.082;3.046;2024-02-16T11:01:38;7.55;;;4.40;;
85871;SDS011;76390;44.082;3.046;2024-02-16T11:04:05;6.57;;;3.75;;
85871;SDS011;76390;44.082;3.046;2024-02-16T11:11:54;9.70;;;3.92;;
85871;SDS011;76390;44.082;3.046;2024-02-16T11:14:39;7.85;;;4.38;;
85871;SDS011;76390;44.082;3.046;2024-02-16T11:17:09;9.32;;;4.43;;
85871;SDS011;76390;44.082;3.046;2024-02-16T11:19:36;7.97;;;4.28;;
85871;SDS011;76390;44.082;3.046;2024-02-16T11:22:05;7.32;;;3.80;;
85871;SDS011;76390;44.082;3.046;2024-02-16T11:24:34;6.78;;;3.95;;
85871;SDS011;76390;44.082;3.046;2024-02-16T11:27:01;5.18;;;2.53;;
85871;SDS011;76390;44.082;3.046;2024-02-16T11:29:34;5.55;;;2.47;;
85871;SDS011;76390;44.082;3.046;2024-02-16T11:32:03;7.00;;;2.58;;
85871;SDS011;76390;44.082;3.046;2024-02-16T11:34:29;8.65;;;3.50;;
85871;SDS011;76390;44.082;3.046;2024-02-16T11:36:55;10.10;;;3.15;;
85871;SDS011;76390;44.082;3.046;2024-02-16T11:39:22;6.75;;;2.67;;
85871;SDS011;76390;44.082;3.046;2024-02-16T11:41:48;8.20;;;3.05;;
85871;SDS011;76390;44.082;3.046;2024-02-16T11:44:14;6.05;;;2.35;;
85871;SDS011;76390;44.082;3.046;2024-02-16T11:46:41;7.85;;;3.80;;
85871;SDS011;76390;44.082;3.046;2024-02-16T11:49:08;5.85;;;2.92;;
85871;SDS011;76390;44.082;3.046;2024-02-16T11:51:34;8.30;;;3.20;;
85871;SDS011;76390;44.082;3.046;2024-02-16T11:53:59;5.80;;;2.80;;
85871;SDS011;76390;44.082;3.046;2024-02-16T11:56:25;5.53;;;2.90;;
85871;SDS011;76390;44.082;3.046;2024-02-16T11:58:54;12.90;;;3.05;;
85871;SDS011;76390;44.082;3.046;2024-02-16T12:01:20;7.00;;;2.70;;
85871;SDS011;76390;44.082;3.046;2024-02-16T12:03:46;6.32;;;2.53;;
85871;SDS011;76390;44.082;3.046;2024-02-16T12:06:19;5.72;;;2.20;;
85871;SDS011;76390;44.082;3.046;2024-02-16T12:08:46;4.47;;;2.10;;
85871;SDS011;76390;44.082;3.046;2024-02-16T12:11:12;6.85;;;2.40;;
85871;SDS011;76390;44.082;3.046;2024-02-16T12:13:39;7.32;;;2.00;;
85871;SDS011;76390;44.082;3.046;2024-02-16T12:16:05;9.07;;;2.63;;
85871;SDS011;76390;44.082;3.046;2024-02-16T12:18:32;7.35;;;3.20;;
85871;SDS011;76390;44.082;3.046;2024-02-16T12:21:01;6.35;;;2.97;;
85871;SDS011;76390;44.082;3.046;2024-02-16T12:23:28;10.35;;;3.42;;
85871;SDS011;76390;44.082;3.046;2024-02-16T12:25:56;9.23;;;3.53;;
85871;SDS011;76390;44.082;3.046;2024-02-16T12:28:28;8.48;;;3.38;;
85871;SDS011;76390;44.082;3.046;2024-02-16T12:30:57;5.80;;;3.17;;
85871;SDS011;76390;44.082;3.046;2024-02-16T12:33:23;6.03;;;2.80;;
85871;SDS011;76390;44.082;3.046;2024-02-16T12:35:49;9.27;;;3.25;;
85871;SDS011;76390;44.082;3.046;2024-02-16T12:38:14;5.53;;;2.70;;
85871;SDS011;76390;44.082;3.046;2024-02-16T12:40:42;13.15;;;3.53;;
85871;SDS011;76390;44.082;3.046;2024-02-16T12:43:08;11.57;;;3.38;;
85871;SDS011;76390;44.082;3.046;2024-02-16T12:45:36;11.63;;;3.30;;
85871;SDS011;76390;44.082;3.046;2024-02-16T12:48:02;10.50;;;3.53;;
85871;SDS011;76390;44.082;3.046;2024-02-16T12:50:29;9.82;;;2.97;;
85871;SDS011;76390;44.082;3.046;2024-02-16T12:52:55;8.35;;;3.10;;
85871;SDS011;76390;44.082;3.046;2024-02-16T12:55:22;6.25;;;2.90;;
85871;SDS011;76390;44.082;3.046;2024-02-16T12:57:48;7.78;;;2.67;;
85871;SDS011;76390;44.082;3.046;2024-02-16T13:00:14;7.55;;;3.42;;
85871;SDS011;76390;44.082;3.046;2024-02-16T13:02:40;7.00;;;2.63;;
85871;SDS011;76390;44.082;3.046;2024-02-16T13:05:06;7.82;;;3.08;;
85871;SDS011;76390;44.082;3.046;2024-02-16T13:07:31;6.07;;;2.75;;
85871;SDS011;76390;44.082;3.046;2024-02-16T13:09:57;5.60;;;2.67;;
85871;SDS011;76390;44.082;3.046;2024-02-16T13:12:22;5.97;;;2.90;;
85871;SDS011;76390;44.082;3.046;2024-02-16T13:14:49;5.63;;;3.35;;
85871;SDS011;76390;44.082;3.046;2024-02-16T13:17:14;9.43;;;3.13;;
85871;SDS011;76390;44.082;3.046;2024-02-16T13:19:40;9.07;;;3.40;;
85871;SDS011;76390;44.082;3.046;2024-02-16T13:22:05;7.85;;;3.30;;
85871;SDS011;76390;44.082;3.046;2024-02-16T13:24:31;6.57;;;2.80;;
85871;SDS011;76390;44.082;3.046;2024-02-16T13:26:56;9.75;;;3.50;;
85871;SDS011;76390;44.082;3.046;2024-02-16T13:29:22;7.03;;;3.40;;
85871;SDS011;76390;44.082;3.046;2024-02-16T13:31:48;8.50;;;3.35;;
85871;SDS011;76390;44.082;3.046;2024-02-16T13:34:13;12.02;;;3.58;;
85871;SDS011;76390;44.082;3.046;2024-02-16T13:36:42;8.52;;;4.50;;
85871;SDS011;76390;44.082;3.046;2024-02-16T13:39:08;6.65;;;3.47;;
85871;SDS011;76390;44.082;3.046;2024-02-16T13:41:33;8.55;;;3.65;;
85871;SDS011;76390;44.082;3.046;2024-02-16T13:43:59;9.35;;;3.55;;
85871;SDS011;76390;44.082;3.046;2024-02-16T13:46:25;10.57;;;4.15;;
85871;SDS011;76390;44.082;3.046;2024-02-16T13:48:50;11.32;;;3.80;;
85871;SDS011;76390;44.082;3.046;2024-02-16T13:51:16;7.90;;;3.20;;
85871;SDS011;76390;44.082;3.046;2024-02-16T13:53:41;10.55;;;4.22;;
85871;SDS011;76390;44.082;3.046;2024-02-16T13:56:07;7.28;;;3.00;;
85871;SDS011;76390;44.082;3.046;2024-02-16T13:58:33;6.03;;;2.95;;
85871;SDS011;76390;44.082;3.046;2024-02-16T14:00:59;7.38;;;3.30;;
85871;SDS011;76390;44.082;3.046;2024-02-16T14:03:26;8.43;;;2.58;;
85871;SDS011;76390;44.082;3.046;2024-02-16T14:05:52;8.00;;;2.38;;
85871;SDS011;76390;44.082;3.046;2024-02-16T14:08:17;12.52;;;3.03;;
85871;SDS011;76390;44.082;3.046;2024-02-16T14:10:43;8.85;;;2.97;;
85871;SDS011;76390;44.082;3.046;2024-02-16T14:13:08;7.65;;;2.72;;
85871;SDS011;76390;44.082;3.046;2024-02-16T14:15:34;7.05;;;2.58;;
85871;SDS011;76390;44.082;3.046;2024-02-16T14:18:00;5.30;;;2.70;;
85871;SDS011;76390;44.082;3.046;2024-02-16T14:20:25;10.85;;;3.03;;
85871;SDS011;76390;44.082;3.046;2024-02-16T14:22:51;6.78;;;3.10;;
85871;SDS011;76390;44.082;3.046;2024-02-16T14:25:16;6.57;;;2.70;;
85871;SDS011;76390;44.082;3.046;2024-02-16T14:27:43;6.35;;;2.60;;
85871;SDS011;76390;44.082;3.046;2024-02-16T14:30:10;7.53;;;3.30;;
85871;SDS011;76390;44.082;3.046;2024-02-16T14:32:36;5.65;;;1.90;;
85871;SDS011;76390;44.082;3.046;2024-02-16T14:35:02;6.28;;;2.15;;
85871;SDS011;76390;44.082;3.046;2024-02-16T14:37:28;2.58;;;1.20;;
85871;SDS011;76390;44.082;3.046;2024-02-16T14:39:54;4.60;;;1.50;;
85871;SDS011;76390;44.082;3.046;2024-02-16T14:42:23;2.90;;;1.10;;